createdAt,value
2018-07-25T00:02:22.953Z,100672.09
2018-07-25T00:04:51.423Z,100663.09
2018-07-25T00:07:19.844Z,100670.56
2018-07-25T00:09:48.292Z,100673.92
2018-07-25T00:12:16.720Z,100678.12
2018-07-25T00:14:45.088Z,100675.95
2018-07-25T00:17:13.448Z,100675.84
2018-07-25T00:19:41.885Z,100672.45
2018-07-25T00:22:10.383Z,100673.76
2018-07-25T00:24:39.313Z,100665.91
2018-07-25T00:27:07.797Z,100666.83
2018-07-25T00:29:36.237Z,100669.06
2018-07-25T00:32:04.669Z,100669.06
2018-07-25T00:34:33.143Z,100664.36
2018-07-25T00:37:01.598Z,100667.37
2018-07-25T00:39:30.093Z,100670.06
2018-07-25T00:41:58.576Z,100673.59
2018-07-25T00:44:26.973Z,100674.17
2018-07-25T00:46:55.396Z,100667.55
2018-07-25T00:49:23.851Z,100671.47
2018-07-25T00:51:52.257Z,100664.16
2018-07-25T00:54:20.684Z,100666.15
2018-07-25T00:56:49.139Z,100669.09
2018-07-25T00:59:17.533Z,100671.02
2018-07-25T01:01:45.913Z,100665.69
2018-07-25T01:04:14.316Z,100666.87
2018-07-25T01:06:42.739Z,100665.77
2018-07-25T01:09:11.840Z,100663.20
2018-07-25T01:11:40.372Z,100662.35
2018-07-25T01:14:08.871Z,100664.23
2018-07-25T01:16:37.279Z,100664.37
2018-07-25T01:19:05.744Z,100668.30
2018-07-25T01:21:34.137Z,100668.97
2018-07-25T01:24:02.488Z,100664.80
2018-07-25T01:26:30.915Z,100662.12
2018-07-25T01:28:59.356Z,100658.55
2018-07-25T01:31:27.809Z,100664.37
2018-07-25T01:33:56.239Z,100662.54
2018-07-25T01:36:24.642Z,100664.84
2018-07-25T01:38:53.007Z,100670.23
2018-07-25T01:41:21.376Z,100663.52
2018-07-25T01:43:49.865Z,100672.03
2018-07-25T01:46:18.216Z,100674.87
2018-07-25T01:48:46.608Z,100668.16
2018-07-25T01:51:14.980Z,100669.67
2018-07-25T01:53:43.464Z,100665.07
2018-07-25T01:56:11.834Z,100668.17
2018-07-25T01:58:40.225Z,100674.13
2018-07-25T02:01:08.757Z,100674.97
2018-07-25T02:03:37.180Z,100675.50
2018-07-25T02:06:05.960Z,100673.05
2018-07-25T02:08:34.313Z,100671.48
2018-07-25T02:11:02.714Z,100675.08
2018-07-25T02:13:31.132Z,100672.47
2018-07-25T02:15:59.529Z,100674.42
2018-07-25T02:18:27.921Z,100676.25
2018-07-25T02:20:56.355Z,100679.65
2018-07-25T02:23:24.743Z,100676.91
2018-07-25T02:25:53.184Z,100680.79
2018-07-25T02:28:21.570Z,100676.41
2018-07-25T02:30:49.976Z,100684.98
2018-07-25T02:33:21.360Z,100679.56
2018-07-25T02:35:49.779Z,100684.52
2018-07-25T02:38:18.136Z,100688.89
2018-07-25T02:40:46.545Z,100687.25
2018-07-25T02:43:14.933Z,100683.95
2018-07-25T02:45:46.557Z,100695.30
2018-07-25T02:48:15.949Z,100692.09
2018-07-25T02:50:44.570Z,100697.87
2018-07-25T02:53:13.305Z,100694.55
2018-07-25T02:55:41.724Z,100699.37
2018-07-25T02:58:10.136Z,100704.19
2018-07-25T03:00:38.546Z,100706.41
2018-07-25T03:03:06.983Z,100712.69
2018-07-25T03:05:35.383Z,100712.05
2018-07-25T03:08:03.940Z,100716.42
2018-07-25T03:10:32.390Z,100715.66
2018-07-25T03:13:00.836Z,100714.20
2018-07-25T03:15:29.221Z,100715.20
2018-07-25T03:17:57.687Z,100721.81
2018-07-25T03:20:26.108Z,100720.54
2018-07-25T03:22:54.513Z,100723.08
2018-07-25T03:25:22.983Z,100724.95
2018-07-25T03:27:51.472Z,100728.87
2018-07-25T03:30:19.860Z,100734.20
2018-07-25T03:32:48.242Z,100732.30
2018-07-25T03:35:16.681Z,100735.54
2018-07-25T03:37:45.055Z,100732.88
2018-07-25T03:40:13.454Z,100730.66
2018-07-25T03:42:41.818Z,100734.23
2018-07-25T03:45:10.222Z,100732.59
2018-07-25T03:47:38.653Z,100737.35
2018-07-25T03:50:07.129Z,100734.88
2018-07-25T03:52:35.531Z,100743.81
2018-07-25T03:55:04.041Z,100740.36
2018-07-25T03:57:32.437Z,100737.00
2018-07-25T04:00:00.878Z,100740.80
2018-07-25T04:02:29.318Z,100740.06
2018-07-25T04:04:57.728Z,100739.88
2018-07-25T04:07:26.140Z,100740.61
2018-07-25T04:09:54.563Z,100740.55
2018-07-25T04:12:22.974Z,100734.48
2018-07-25T04:14:51.329Z,100740.34
2018-07-25T04:17:19.753Z,100743.01
2018-07-25T04:19:48.189Z,100742.95
2018-07-25T04:22:16.706Z,100738.30
2018-07-25T04:24:45.161Z,100736.72
2018-07-25T04:27:13.540Z,100740.20
2018-07-25T04:29:41.954Z,100740.20
2018-07-25T04:32:10.379Z,100743.42
2018-07-25T04:37:06.217Z,100741.50
2018-07-25T04:39:34.586Z,100747.00
2018-07-25T04:42:03.034Z,100751.45
2018-07-25T04:44:31.459Z,100750.23
2018-07-25T04:46:59.982Z,100761.35
2018-07-25T04:49:28.430Z,100756.88
2018-07-25T04:51:57.555Z,100754.49
2018-07-25T04:54:26.031Z,100757.42
2018-07-25T04:56:54.493Z,100755.48
2018-07-25T04:59:22.904Z,100770.40
2018-07-25T05:01:51.325Z,100768.88
2018-07-25T05:04:19.748Z,100768.03
2018-07-25T05:06:48.152Z,100770.98
2018-07-25T05:09:16.613Z,100766.39
2018-07-25T05:11:45.113Z,100768.66
2018-07-25T05:14:13.505Z,100774.25
2018-07-25T05:16:41.925Z,100765.64
2018-07-25T05:19:10.516Z,100775.42
2018-07-25T05:21:38.995Z,100778.30
2018-07-25T05:24:07.555Z,100776.61
2018-07-25T05:26:35.971Z,100778.59
2018-07-25T05:29:04.442Z,100778.12
2018-07-25T05:31:32.803Z,100778.52
2018-07-25T05:34:01.228Z,100788.42
2018-07-25T05:36:29.591Z,100790.92
2018-07-25T05:38:58.128Z,100793.47
2018-07-25T05:41:26.507Z,100794.77
2018-07-25T05:43:54.934Z,100797.77
2018-07-25T05:46:23.332Z,100794.99
2018-07-25T05:48:51.742Z,100796.95
2018-07-25T05:51:20.201Z,100797.59
2018-07-25T05:53:48.755Z,100800.99
2018-07-25T05:56:17.189Z,100797.98
2018-07-25T05:58:45.640Z,100803.20
2018-07-25T06:01:14.089Z,100801.90
2018-07-25T06:03:42.527Z,100808.70
2018-07-25T06:06:11.012Z,100808.49
2018-07-25T06:08:39.418Z,100814.05
2018-07-25T06:11:08.075Z,100818.18
2018-07-25T06:13:37.037Z,100819.37
2018-07-25T06:16:05.681Z,100824.05
2018-07-25T06:18:34.346Z,100817.91
2018-07-25T06:21:02.864Z,100821.70
2018-07-25T06:23:31.256Z,100826.34
2018-07-25T06:26:00.136Z,100831.45
2018-07-25T06:28:29.132Z,100836.67
2018-07-25T06:30:57.594Z,100844.30
2018-07-25T06:33:26.020Z,100844.69
2018-07-25T06:35:54.482Z,100843.78
2018-07-25T06:38:22.974Z,100843.27
2018-07-25T06:40:51.364Z,100843.14
2018-07-25T06:43:19.855Z,100844.33
2018-07-25T06:45:48.264Z,100848.12
2018-07-25T06:48:17.067Z,100849.33
2018-07-25T06:50:45.528Z,100851.03
2018-07-25T06:53:13.988Z,100847.97
2018-07-25T06:55:42.440Z,100850.45
2018-07-25T06:58:10.936Z,100849.48
2018-07-25T07:00:39.559Z,100848.11
2018-07-25T07:03:07.967Z,100858.89
2018-07-25T07:05:36.568Z,100856.73
2018-07-25T07:08:05.108Z,100854.13
2018-07-25T07:10:33.529Z,100849.30
2018-07-25T07:13:02.114Z,100850.98
2018-07-25T07:15:30.533Z,100849.63
2018-07-25T07:17:59.003Z,100850.80
2018-07-25T07:20:27.448Z,100852.44
2018-07-25T07:22:55.904Z,100854.14
2018-07-25T07:25:24.368Z,100857.02
2018-07-25T07:27:52.912Z,100855.59
2018-07-25T07:30:21.556Z,100853.37
2018-07-25T07:32:50.000Z,100858.11
2018-07-25T07:35:18.571Z,100858.95
2018-07-25T07:37:47.104Z,100859.80
2018-07-25T07:40:15.630Z,100863.66
2018-07-25T07:42:44.051Z,100863.99
2018-07-25T07:45:12.814Z,100866.08
2018-07-25T07:47:41.476Z,100866.22
2018-07-25T07:50:10.102Z,100869.45
2018-07-25T07:52:38.597Z,100865.08
2018-07-25T07:55:07.035Z,100872.23
2018-07-25T07:57:35.816Z,100866.94
2018-07-25T08:00:05.060Z,100866.41
2018-07-25T08:02:33.480Z,100873.73
2018-07-25T08:05:02.366Z,100870.66
2018-07-25T08:07:30.799Z,100866.45
2018-07-25T08:09:59.190Z,100868.31
2018-07-25T08:12:27.622Z,100867.90
2018-07-25T08:14:56.119Z,100868.29
2018-07-25T08:17:24.677Z,100863.91
2018-07-25T08:19:53.140Z,100869.33
2018-07-25T08:22:21.613Z,100859.74
2018-07-25T08:24:50.117Z,100857.41
2018-07-25T08:27:18.602Z,100864.48
2018-07-25T08:29:47.032Z,100863.56
2018-07-25T08:32:16.696Z,100858.16
2018-07-25T08:34:45.462Z,100857.00
2018-07-25T08:37:13.883Z,100859.07
2018-07-25T08:39:42.345Z,100861.38
2018-07-25T08:42:10.741Z,100850.13
2018-07-25T08:44:39.144Z,100855.89
2018-07-25T08:47:07.628Z,100853.77
2018-07-25T08:49:36.078Z,100860.80
2018-07-25T08:52:04.579Z,100855.70
2018-07-25T08:54:32.992Z,100855.94
2018-07-25T08:57:01.428Z,100851.31
2018-07-25T08:59:29.835Z,100853.85
2018-07-25T09:01:58.324Z,100855.23
2018-07-25T09:04:26.690Z,100850.80
2018-07-25T09:06:55.172Z,100858.13
2018-07-25T09:09:23.739Z,100860.80
2018-07-25T09:11:52.192Z,100862.33
2018-07-25T09:14:20.624Z,100859.89
2018-07-25T09:16:49.066Z,100857.11
2018-07-25T09:19:17.486Z,100860.81
2018-07-25T09:21:45.941Z,100852.25
2018-07-25T09:24:14.316Z,100859.66
2018-07-25T09:26:42.814Z,100856.02
2018-07-25T09:29:11.254Z,100853.02
2018-07-25T09:31:39.656Z,100855.20
2018-07-25T09:34:08.196Z,100840.83
2018-07-25T09:36:36.606Z,100841.67
2018-07-25T09:39:08.145Z,100840.91
2018-07-25T09:41:36.524Z,100845.58
2018-07-25T09:44:04.999Z,100841.55
2018-07-25T09:46:33.567Z,100846.08
2018-07-25T09:49:01.895Z,100840.56
2018-07-25T09:51:30.405Z,100843.36
2018-07-25T09:53:58.796Z,100844.77
2018-07-25T09:56:27.267Z,100846.30
2018-07-25T09:58:55.839Z,100837.43
2018-07-25T10:01:24.201Z,100833.76
2018-07-25T10:03:52.603Z,100836.32
2018-07-25T10:06:21.012Z,100838.73
2018-07-25T10:08:49.493Z,100846.84
2018-07-25T10:11:17.895Z,100841.36
2018-07-25T10:13:46.336Z,100836.30
2018-07-25T10:16:14.769Z,100836.39
2018-07-25T10:18:43.303Z,100832.27
2018-07-25T10:21:11.746Z,100834.17
2018-07-25T10:23:40.218Z,100830.47
2018-07-25T10:26:08.736Z,100828.11
2018-07-25T10:28:37.183Z,100832.94
2018-07-25T10:31:05.665Z,100826.77
2018-07-25T10:33:34.206Z,100829.45
2018-07-25T10:36:02.623Z,100827.01
2018-07-25T10:38:31.032Z,100820.79
2018-07-25T10:40:59.438Z,100828.66
2018-07-25T10:43:28.256Z,100825.03
2018-07-25T10:45:56.696Z,100819.54
2018-07-25T10:48:25.128Z,100822.26
2018-07-25T10:50:53.557Z,100818.33
2018-07-25T10:53:22.092Z,100823.67
2018-07-25T10:55:50.523Z,100821.89
2018-07-25T10:58:18.928Z,100818.78
2018-07-25T11:00:48.281Z,100819.92
2018-07-25T11:03:16.776Z,100821.45
2018-07-25T11:05:45.222Z,100825.81
2018-07-25T11:08:13.771Z,100820.69
2018-07-25T11:10:42.267Z,100825.39
2018-07-25T11:13:10.848Z,100820.11
2018-07-25T11:15:39.331Z,100816.98
2018-07-25T11:18:07.908Z,100813.78
2018-07-25T11:20:36.395Z,100808.20
2018-07-25T11:23:04.876Z,100805.01
2018-07-25T11:25:33.283Z,100807.11
2018-07-25T11:28:01.853Z,100803.11
2018-07-25T11:30:30.323Z,100804.43
2018-07-25T11:32:58.804Z,100801.97
2018-07-25T11:35:27.223Z,100798.36
2018-07-25T11:37:55.716Z,100794.70
2018-07-25T11:40:24.160Z,100791.90
2018-07-25T11:42:53.088Z,100789.52
2018-07-25T11:45:21.512Z,100786.14
2018-07-25T11:47:50.041Z,100784.94
2018-07-25T11:50:18.571Z,100780.54
2018-07-25T11:52:47.005Z,100790.84
2018-07-25T11:55:15.471Z,100780.08
2018-07-25T11:57:43.971Z,100782.94
2018-07-25T12:00:12.492Z,100780.39
2018-07-25T12:02:40.896Z,100773.22
2018-07-25T12:05:09.393Z,100772.08
2018-07-25T12:07:38.152Z,100773.69
2018-07-25T12:10:06.639Z,100765.72
2018-07-25T12:12:35.169Z,100757.25
2018-07-25T12:15:03.624Z,100762.36
2018-07-25T12:17:32.056Z,100757.79
2018-07-25T12:20:00.600Z,100761.46
2018-07-25T12:22:29.019Z,100751.02
2018-07-25T12:24:57.410Z,100749.69
2018-07-25T12:27:25.889Z,100753.91
2018-07-25T12:29:54.272Z,100749.67
2018-07-25T12:32:22.690Z,100747.84
2018-07-25T12:34:51.089Z,100738.92
2018-07-25T12:37:19.511Z,100742.81
2018-07-25T12:39:49.057Z,100744.75
2018-07-25T12:42:17.528Z,100736.63
2018-07-25T12:44:46.041Z,100733.25
2018-07-25T12:47:14.455Z,100735.35
2018-07-25T12:49:42.884Z,100731.70
2018-07-25T12:52:11.312Z,100731.30
2018-07-25T12:54:39.720Z,100729.41
2018-07-25T12:57:08.332Z,100728.99
2018-07-25T12:59:36.803Z,100725.14
2018-07-25T13:02:05.337Z,100723.44
2018-07-25T13:04:33.814Z,100725.84
2018-07-25T13:07:02.441Z,100723.38
2018-07-25T13:09:30.867Z,100719.88
2018-07-25T13:11:59.337Z,100721.02
2018-07-25T13:14:27.761Z,100716.23
2018-07-25T13:16:56.272Z,100720.83
2018-07-25T13:19:24.707Z,100715.08
2018-07-25T13:21:53.760Z,100715.64
2018-07-25T13:24:22.516Z,100715.05
2018-07-25T13:26:51.008Z,100715.55
2018-07-25T13:29:19.491Z,100715.08
2018-07-25T13:31:47.896Z,100704.77
2018-07-25T13:34:16.375Z,100711.34
2018-07-25T13:36:44.802Z,100728.17
2018-07-25T13:39:13.421Z,100715.77
2018-07-25T13:41:41.851Z,100728.30
2018-07-25T13:44:10.433Z,100732.30
2018-07-25T13:46:38.869Z,100733.00
2018-07-25T13:49:07.304Z,100763.33
2018-07-25T13:51:35.695Z,100780.99
2018-07-25T13:54:04.272Z,100773.95
2018-07-25T13:56:32.741Z,100801.12
2018-07-25T13:59:01.211Z,100817.23
2018-07-25T14:01:30.227Z,100823.25
2018-07-25T14:03:58.732Z,100806.23
2018-07-25T14:06:27.303Z,100787.53
2018-07-25T14:08:55.768Z,100768.19
2018-07-25T14:11:24.239Z,100757.22
2018-07-25T14:13:52.774Z,100744.50
2018-07-25T14:16:21.216Z,100739.91
2018-07-25T14:18:49.997Z,100744.66
2018-07-25T14:21:18.482Z,100743.84
2018-07-25T14:23:47.032Z,100743.64
2018-07-25T14:26:15.421Z,100746.36
2018-07-25T14:28:43.940Z,100751.00
2018-07-25T14:31:12.373Z,100743.56
2018-07-25T14:33:40.771Z,100745.83
2018-07-25T14:36:09.319Z,100752.09
2018-07-25T14:38:37.721Z,100751.36
2018-07-25T14:41:06.514Z,100746.95
2018-07-25T14:43:35.850Z,100749.29
2018-07-25T14:46:04.380Z,100749.00
2018-07-25T14:48:32.876Z,100754.34
2018-07-25T14:51:01.324Z,100753.13
2018-07-25T14:53:29.822Z,100746.36
2018-07-25T14:55:58.199Z,100748.80
2018-07-25T14:58:27.672Z,100749.51
2018-07-25T15:00:56.920Z,100754.31
2018-07-25T15:03:25.671Z,100749.02
2018-07-25T15:05:54.163Z,100743.63
2018-07-25T15:08:22.647Z,100732.53
2018-07-25T15:10:51.388Z,100734.36
2018-07-25T15:13:20.109Z,100731.56
2018-07-25T15:15:48.513Z,100734.34
2018-07-25T15:18:16.951Z,100735.59
2018-07-25T15:20:45.444Z,100743.23
2018-07-25T15:23:19.088Z,100739.88
2018-07-25T15:25:47.545Z,100737.91
2018-07-25T15:28:16.129Z,100730.14
2018-07-25T15:30:45.544Z,100730.62
2018-07-25T15:33:14.041Z,100724.74
2018-07-25T15:35:42.508Z,100724.56
2018-07-25T15:38:10.952Z,100717.42
2018-07-25T15:40:39.424Z,100719.69
2018-07-25T15:43:07.945Z,100712.17
2018-07-25T15:45:36.365Z,100715.97
2018-07-25T15:48:04.874Z,100711.55
2018-07-25T15:50:33.347Z,100712.78
2018-07-25T15:53:01.810Z,100721.89
2018-07-25T15:55:31.129Z,100712.97
2018-07-25T15:57:59.621Z,100713.72
2018-07-25T16:00:28.034Z,100710.16
2018-07-25T16:02:56.553Z,100706.33
2018-07-25T16:05:25.081Z,100710.41
2018-07-25T16:07:53.488Z,100709.66
2018-07-25T16:10:22.026Z,100709.28
2018-07-25T16:12:50.455Z,100710.41
2018-07-25T16:15:18.968Z,100701.39
2018-07-25T16:17:47.534Z,100702.33
2018-07-25T16:20:17.125Z,100702.61
2018-07-25T16:22:45.652Z,100699.51
2018-07-25T16:25:15.061Z,100700.36
2018-07-25T16:27:43.548Z,100697.59
2018-07-25T16:30:12.049Z,100691.84
2018-07-25T16:32:41.078Z,100696.06
2018-07-25T16:35:09.815Z,100698.50
2018-07-25T16:37:38.328Z,100695.36
2018-07-25T16:40:06.853Z,100698.27
2018-07-25T16:42:35.255Z,100687.85
2018-07-25T16:45:03.934Z,100690.10
2018-07-25T16:47:32.392Z,100692.08
2018-07-25T16:50:00.882Z,100699.58
2018-07-25T16:52:29.421Z,100700.52
2018-07-25T16:54:57.842Z,100697.89
2018-07-25T16:57:26.285Z,100699.08
2018-07-25T16:59:54.786Z,100699.86
2018-07-25T17:02:23.284Z,100699.86
2018-07-25T17:04:51.746Z,100702.69
2018-07-25T17:07:20.157Z,100710.70
2018-07-25T17:09:48.566Z,100710.20
2018-07-25T17:12:17.030Z,100711.59
2018-07-25T17:14:45.514Z,100714.56
2018-07-25T17:17:13.978Z,100709.48
2018-07-25T17:19:42.592Z,100716.52
2018-07-25T17:22:11.067Z,100719.71
2018-07-25T17:24:39.536Z,100722.98
2018-07-25T17:27:08.093Z,100718.62
2018-07-25T17:29:36.685Z,100718.89
2018-07-25T17:32:05.241Z,100718.59
2018-07-25T17:34:33.752Z,100722.63
2018-07-25T17:37:02.241Z,100725.73
2018-07-25T17:39:30.732Z,100732.49
2018-07-25T17:41:59.223Z,100725.91
2018-07-25T17:44:27.753Z,100727.89
2018-07-25T17:46:56.237Z,100741.28
2018-07-25T17:49:24.694Z,100720.06
2018-07-25T17:51:53.142Z,100735.47
2018-07-25T17:54:21.661Z,100738.16
2018-07-25T17:56:50.111Z,100741.20
2018-07-25T17:59:18.551Z,100740.64
2018-07-25T18:01:47.021Z,100738.63
2018-07-25T18:04:15.452Z,100742.19
2018-07-25T18:06:43.958Z,100748.77
2018-07-25T18:09:12.423Z,100749.08
2018-07-25T18:11:41.843Z,100759.50
2018-07-25T18:14:12.225Z,100756.50
2018-07-25T18:16:41.250Z,100759.88
2018-07-25T18:19:09.757Z,100757.25
2018-07-25T18:21:39.090Z,100753.48
2018-07-25T18:24:07.589Z,100759.94
2018-07-25T18:26:36.104Z,100764.43
2018-07-25T18:29:04.933Z,100767.99
2018-07-25T18:31:33.704Z,100768.39
2018-07-25T18:34:03.177Z,100768.02
2018-07-25T18:36:31.711Z,100768.09
2018-07-25T18:39:00.239Z,100766.95
2018-07-25T18:41:28.756Z,100774.92
2018-07-25T18:43:57.225Z,100774.21
2018-07-25T18:46:25.985Z,100773.07
2018-07-25T18:48:54.831Z,100776.25
2018-07-25T18:51:23.830Z,100776.50
2018-07-25T18:53:52.585Z,100781.84
2018-07-25T18:56:21.429Z,100782.77
2018-07-25T18:58:50.369Z,100784.63
2018-07-25T19:01:19.014Z,100790.19
2018-07-25T19:03:47.581Z,100785.66
2018-07-25T19:06:16.031Z,100791.83
2018-07-25T19:08:44.541Z,100789.76
2018-07-25T19:11:13.214Z,100792.16
2018-07-25T19:13:45.826Z,100798.83
2018-07-25T19:16:14.420Z,100794.50
2018-07-25T19:18:43.312Z,100793.58
2018-07-25T19:21:12.061Z,100798.06
2018-07-25T19:23:41.794Z,100792.05
2018-07-25T19:26:12.919Z,100791.28
2018-07-25T19:28:41.776Z,100796.91
2018-07-25T19:31:11.426Z,100800.38
2018-07-25T19:33:40.501Z,100810.80
2018-07-25T19:36:11.027Z,100807.11
2018-07-25T19:38:39.910Z,100812.60
2018-07-25T19:41:08.823Z,100816.20
2018-07-25T19:43:37.504Z,100823.18
2018-07-25T19:46:06.373Z,100822.77
2018-07-25T19:48:35.215Z,100822.45
2018-07-25T19:51:04.117Z,100815.13
2018-07-25T19:53:33.067Z,100816.06
2018-07-25T19:56:01.983Z,100822.78
2018-07-25T19:58:31.596Z,100815.53
2018-07-25T20:01:00.634Z,100817.78
2018-07-25T20:03:30.090Z,100819.17
2018-07-25T20:05:58.827Z,100814.59
2018-07-25T20:08:27.677Z,100811.59
2018-07-25T20:10:56.290Z,100812.52
2018-07-25T20:13:25.082Z,100810.44
2018-07-25T20:15:58.816Z,100810.59
2018-07-25T20:18:28.111Z,100807.28
2018-07-25T20:22:26.070Z,100812.98
2018-07-25T20:24:54.733Z,100805.80
2018-07-25T20:27:23.374Z,100810.66
2018-07-25T20:29:52.152Z,100807.18
2018-07-25T20:32:20.768Z,100808.73
2018-07-25T20:34:49.420Z,100810.66
2018-07-25T20:37:18.059Z,100805.95
2018-07-25T20:39:46.744Z,100813.44
2018-07-25T20:42:15.623Z,100810.48
2018-07-25T20:44:44.033Z,100811.71
2018-07-25T20:47:12.607Z,100806.55
2018-07-25T20:49:41.112Z,100811.91
2018-07-25T20:52:09.500Z,100815.38
2018-07-25T20:54:38.044Z,100811.53
2018-07-25T20:57:06.060Z,100818.62
2018-07-25T20:59:34.693Z,100817.31
2018-07-25T21:02:03.454Z,100818.62
2018-07-25T21:04:31.986Z,100814.38
2018-07-25T21:07:00.529Z,100814.92
2018-07-25T21:09:28.966Z,100825.48
2018-07-25T21:11:57.960Z,100820.70
2018-07-25T21:14:26.811Z,100818.66
2018-07-25T21:16:55.283Z,100816.58
2018-07-25T21:19:23.813Z,100818.43
2018-07-25T21:21:52.266Z,100820.66
2018-07-25T21:24:20.776Z,100819.51
2018-07-25T21:26:49.226Z,100816.11
2018-07-25T21:29:17.669Z,100818.42
2018-07-25T21:31:46.113Z,100819.34
2018-07-25T21:34:14.683Z,100819.42
2018-07-25T21:36:43.124Z,100823.86
2018-07-25T21:39:13.203Z,100820.47
2018-07-25T21:41:41.900Z,100816.15
2018-07-25T21:44:10.283Z,100817.92
2018-07-25T21:46:38.655Z,100829.79
2018-07-25T21:49:07.151Z,100829.79
2018-07-25T21:51:35.584Z,100831.17
2018-07-25T21:54:04.013Z,100826.93
2018-07-25T21:56:32.622Z,100820.91
2018-07-25T21:59:01.665Z,100822.30
2018-07-25T22:01:30.233Z,100820.61
2018-07-25T22:03:58.651Z,100825.00
2018-07-25T22:06:27.262Z,100824.58
2018-07-25T22:08:55.771Z,100820.26
2018-07-25T22:11:24.260Z,100818.02
2018-07-25T22:13:57.232Z,100826.57
2018-07-25T22:16:27.179Z,100828.03
2018-07-25T22:18:55.784Z,100827.25
2018-07-25T22:21:24.210Z,100825.55
2018-07-25T22:23:52.866Z,100820.47
2018-07-25T22:26:21.335Z,100825.70
2018-07-25T22:28:49.722Z,100823.62
2018-07-25T22:31:18.246Z,100826.28
2018-07-25T22:33:46.715Z,100825.50
2018-07-25T22:36:15.120Z,100825.58
2018-07-25T22:38:43.611Z,100829.16
2018-07-25T22:41:12.028Z,100830.16
2018-07-25T22:43:40.473Z,100833.30
2018-07-25T22:46:08.932Z,100833.84
2018-07-25T22:48:37.386Z,100833.06
2018-07-25T22:51:06.285Z,100834.37
2018-07-25T22:53:34.857Z,100821.84
2018-07-25T22:56:03.304Z,100825.99
2018-07-25T22:58:31.796Z,100827.77
2018-07-25T23:01:00.172Z,100830.13
2018-07-25T23:03:28.606Z,100822.03
2018-07-25T23:05:57.084Z,100829.03
2018-07-25T23:08:25.507Z,100823.06
2018-07-25T23:10:53.930Z,100829.14
2018-07-25T23:13:22.383Z,100822.74
2018-07-25T23:15:50.852Z,100827.20
2018-07-25T23:18:20.130Z,100819.34
2018-07-25T23:20:48.529Z,100822.03
2018-07-25T23:23:16.928Z,100828.02
2018-07-25T23:25:45.324Z,100823.27
2018-07-25T23:28:13.714Z,100822.25
2018-07-25T23:30:42.139Z,100819.63
2018-07-25T23:33:10.614Z,100823.43
2018-07-25T23:35:39.051Z,100815.50
2018-07-25T23:38:07.628Z,100817.13
2018-07-25T23:40:36.040Z,100819.64
2018-07-25T23:43:04.408Z,100812.58
2018-07-25T23:45:32.915Z,100816.04
2018-07-25T23:48:01.337Z,100808.76
2018-07-25T23:50:29.880Z,100807.52
2018-07-25T23:52:58.325Z,100806.20
2018-07-25T23:55:26.749Z,100801.44
2018-07-25T23:57:55.201Z,100810.98
